createdAt,value
2023-01-05T00:01:39.179Z,26.97
2023-01-05T00:04:06.655Z,31.17
2023-01-05T00:06:33.726Z,24.97
2023-01-05T00:09:01.027Z,18.73
2023-01-05T00:11:56.318Z,21.40
2023-01-05T00:14:46.273Z,23.37
2023-01-05T00:17:34.000Z,21.13
2023-01-05T00:20:19.887Z,22.70
2023-01-05T00:22:52.221Z,25.87
2023-01-05T00:25:24.515Z,31.03
2023-01-05T00:27:53.680Z,26.07
2023-01-05T00:30:36.700Z,24.73
2023-01-05T00:33:03.912Z,24.10
2023-01-05T00:35:31.506Z,26.07
2023-01-05T00:37:58.290Z,22.13
2023-01-05T00:40:25.112Z,27.73
2023-01-05T00:42:51.907Z,19.37
2023-01-05T00:45:19.649Z,25.73
2023-01-05T00:47:48.008Z,22.27
2023-01-05T00:50:17.426Z,30.53
2023-01-05T00:52:44.992Z,21.57
2023-01-05T00:55:12.520Z,26.20
2023-01-05T00:57:39.444Z,23.17
2023-01-05T01:00:08.276Z,27.67
2023-01-05T01:02:35.165Z,19.57
2023-01-05T01:05:02.294Z,27.13
2023-01-05T01:07:30.692Z,21.33
2023-01-05T01:09:57.536Z,33.00
2023-01-05T01:12:24.404Z,24.03
2023-01-05T01:14:51.671Z,26.60
2023-01-05T01:17:18.464Z,25.63
2023-01-05T01:19:46.892Z,23.97
2023-01-05T01:22:14.728Z,20.63
2023-01-05T01:24:41.989Z,25.33
2023-01-05T01:27:08.802Z,18.03
2023-01-05T01:29:35.744Z,27.87
2023-01-05T01:32:02.680Z,24.20
2023-01-05T01:34:30.108Z,29.07
2023-01-05T01:36:59.135Z,30.20
2023-01-05T01:39:30.680Z,29.47
2023-01-05T01:42:03.449Z,22.73
2023-01-05T01:44:58.603Z,19.03
2023-01-05T01:47:49.591Z,31.00
2023-01-05T01:50:28.088Z,22.03
2023-01-05T01:52:59.226Z,23.90
2023-01-05T01:55:27.480Z,23.70
2023-01-05T01:57:54.581Z,21.83
2023-01-05T02:00:21.726Z,27.30
2023-01-05T02:02:53.892Z,24.77
2023-01-05T02:05:28.876Z,22.57
2023-01-05T02:07:55.867Z,23.10
2023-01-05T02:10:47.633Z,29.67
2023-01-05T02:13:29.488Z,28.87
2023-01-05T02:16:25.397Z,32.03
2023-01-05T02:19:13.456Z,23.63
2023-01-05T02:21:56.712Z,33.07
2023-01-05T02:24:48.813Z,30.63
2023-01-05T02:27:20.952Z,27.97
2023-01-05T02:29:53.864Z,33.17
2023-01-05T02:32:26.719Z,33.03
2023-01-05T02:35:15.433Z,29.70
2023-01-05T02:37:46.980Z,27.80
2023-01-05T02:40:36.664Z,27.40
2023-01-05T02:43:04.916Z,25.70
2023-01-05T02:45:31.792Z,29.07
2023-01-05T02:48:00.612Z,27.40
2023-01-05T02:51:04.730Z,27.43
2023-01-05T02:53:34.431Z,31.53
2023-01-05T02:56:07.056Z,23.63
2023-01-05T02:58:42.027Z,24.17
2023-01-05T03:01:12.836Z,21.37
2023-01-05T03:03:49.860Z,27.20
2023-01-05T03:06:56.634Z,31.03
2023-01-05T03:09:29.287Z,27.67
2023-01-05T03:12:21.751Z,36.87
2023-01-05T03:14:53.281Z,33.37
2023-01-05T03:17:28.414Z,39.10
2023-01-05T03:19:56.426Z,28.47
2023-01-05T03:22:48.620Z,35.87
2023-01-05T03:25:39.013Z,30.87
2023-01-05T03:28:29.272Z,24.40
2023-01-05T03:31:23.768Z,25.10
2023-01-05T03:34:28.660Z,34.60
2023-01-05T03:37:04.914Z,27.70
2023-01-05T03:39:33.045Z,30.53
2023-01-05T03:42:04.118Z,32.50
2023-01-05T03:44:30.975Z,24.67
2023-01-05T03:46:58.210Z,29.83
2023-01-05T03:49:25.163Z,27.23
2023-01-05T03:51:52.668Z,24.70
2023-01-05T03:54:19.987Z,30.93
2023-01-05T03:56:47.792Z,30.23
2023-01-05T03:59:15.019Z,27.20
2023-01-05T04:01:42.944Z,27.90
2023-01-05T04:04:13.260Z,25.43
2023-01-05T04:06:40.390Z,31.97
2023-01-05T04:09:08.999Z,27.40
2023-01-05T04:11:38.108Z,29.33
2023-01-05T04:14:06.604Z,28.30
2023-01-05T04:16:35.054Z,32.27
2023-01-05T04:19:10.522Z,26.53
2023-01-05T04:21:37.584Z,26.47
2023-01-05T04:24:05.344Z,29.40
2023-01-05T04:26:34.899Z,30.57
2023-01-05T04:29:02.461Z,23.47
2023-01-05T04:31:29.270Z,24.27
2023-01-05T04:33:56.936Z,28.13
2023-01-05T04:36:25.862Z,22.37
2023-01-05T04:38:55.617Z,23.93
2023-01-05T04:41:22.395Z,32.93
2023-01-05T04:43:51.565Z,30.97
2023-01-05T04:46:18.836Z,32.57
2023-01-05T04:48:48.475Z,34.00
2023-01-05T04:51:17.354Z,26.00
2023-01-05T04:53:44.180Z,25.97
2023-01-05T04:56:15.381Z,28.30
2023-01-05T04:58:47.803Z,26.77
2023-01-05T05:01:14.793Z,32.73
2023-01-05T05:03:43.610Z,21.50
2023-01-05T05:06:14.211Z,27.80
2023-01-05T05:08:40.995Z,26.53
2023-01-05T05:11:09.009Z,32.63
2023-01-05T05:13:38.437Z,29.17
2023-01-05T05:16:05.687Z,32.97
2023-01-05T05:18:33.661Z,29.13
2023-01-05T05:21:01.519Z,27.40
2023-01-05T05:23:32.327Z,27.80
2023-01-05T05:26:00.112Z,31.10
2023-01-05T05:28:28.468Z,32.53
2023-01-05T05:30:56.531Z,28.33
2023-01-05T05:33:24.336Z,24.53
2023-01-05T05:35:51.213Z,26.10
2023-01-05T05:38:18.066Z,22.63
2023-01-05T05:40:44.913Z,33.90
2023-01-05T05:43:14.701Z,26.07
2023-01-05T05:45:50.317Z,33.00
2023-01-05T05:48:18.569Z,21.80
2023-01-05T05:50:45.688Z,30.97
2023-01-05T05:53:12.449Z,25.17
2023-01-05T05:55:39.260Z,33.83
2023-01-05T05:58:06.009Z,29.37
2023-01-05T06:00:32.875Z,36.17
2023-01-05T06:02:59.768Z,35.40
2023-01-05T06:05:26.644Z,28.13
2023-01-05T06:07:53.365Z,25.30
2023-01-05T06:10:20.143Z,41.10
2023-01-05T06:12:46.879Z,24.33
2023-01-05T06:15:17.140Z,23.37
2023-01-05T06:17:45.984Z,32.30
2023-01-05T06:20:12.750Z,37.77
2023-01-05T06:22:42.284Z,23.83
2023-01-05T06:25:09.733Z,28.50
2023-01-05T06:27:36.657Z,35.33
2023-01-05T06:30:04.699Z,33.90
2023-01-05T06:32:31.538Z,29.73
2023-01-05T06:34:58.299Z,32.93
2023-01-05T06:37:25.122Z,36.73
2023-01-05T06:39:52.393Z,36.67
2023-01-05T06:42:23.413Z,36.70
2023-01-05T06:44:50.816Z,37.93
2023-01-05T06:47:18.027Z,31.03
2023-01-05T06:49:44.852Z,36.57
2023-01-05T06:52:16.235Z,24.13
2023-01-05T06:54:43.941Z,33.87
2023-01-05T06:57:11.527Z,32.23
2023-01-05T06:59:38.709Z,36.13
2023-01-05T07:02:05.869Z,27.30
2023-01-05T07:04:32.856Z,29.00
2023-01-05T07:06:59.806Z,29.57
2023-01-05T07:09:26.616Z,35.47
2023-01-05T07:11:53.497Z,30.53
2023-01-05T07:14:20.611Z,29.60
2023-01-05T07:16:49.314Z,31.20
2023-01-05T07:24:40.846Z,35.53
2023-01-05T07:29:50.476Z,34.93
2023-01-05T07:35:48.992Z,33.57
2023-01-05T07:38:22.341Z,35.33
2023-01-05T07:46:36.705Z,28.53
2023-01-05T07:49:04.717Z,23.90
2023-01-05T07:51:32.418Z,27.67
2023-01-05T07:54:01.882Z,32.67
2023-01-05T07:56:29.236Z,32.33
2023-01-05T07:58:56.354Z,27.30
2023-01-05T08:01:23.420Z,31.10
2023-01-05T08:03:50.300Z,33.47
2023-01-05T08:06:19.804Z,31.77
2023-01-05T08:08:47.460Z,26.57
2023-01-05T08:11:16.335Z,37.17
2023-01-05T08:14:01.062Z,25.63
2023-01-05T08:16:31.578Z,37.43
2023-01-05T08:18:59.480Z,33.57
2023-01-05T08:21:26.549Z,31.07
2023-01-05T08:23:53.384Z,28.07
2023-01-05T08:26:22.585Z,32.53
2023-01-05T08:28:50.105Z,32.50
2023-01-05T08:31:28.976Z,27.57
2023-01-05T08:33:57.997Z,33.50
2023-01-05T08:36:25.037Z,21.80
2023-01-05T08:38:55.334Z,32.13
2023-01-05T08:41:28.134Z,29.03
2023-01-05T08:43:56.886Z,25.53
2023-01-05T08:46:29.590Z,33.30
2023-01-05T08:49:01.102Z,25.10
2023-01-05T08:51:38.978Z,29.13
2023-01-05T08:54:08.161Z,26.97
2023-01-05T08:56:39.087Z,32.63
2023-01-05T08:59:06.782Z,30.10
2023-01-05T09:01:34.285Z,26.77
2023-01-05T09:04:01.519Z,30.97
2023-01-05T09:06:28.263Z,33.60
2023-01-05T09:08:55.193Z,35.03
2023-01-05T09:11:23.995Z,32.40
2023-01-05T09:13:53.968Z,24.40
2023-01-05T09:19:10.697Z,36.83
2023-01-05T09:21:45.562Z,37.70
2023-01-05T09:24:14.726Z,31.27
2023-01-05T09:26:42.543Z,27.97
2023-01-05T09:29:10.641Z,27.13
2023-01-05T09:31:37.818Z,30.80
2023-01-05T09:34:06.686Z,31.23
2023-01-05T09:36:37.252Z,30.27
2023-01-05T09:39:06.195Z,29.07
2023-01-05T09:41:37.383Z,40.80
2023-01-05T09:44:14.735Z,32.57
2023-01-05T09:46:45.980Z,23.43
2023-01-05T09:49:18.528Z,31.00
2023-01-05T09:51:45.388Z,25.47
2023-01-05T09:54:17.817Z,26.87
2023-01-05T09:59:38.955Z,32.13
2023-01-05T10:02:39.463Z,44.57
2023-01-05T10:05:07.774Z,26.40
2023-01-05T10:07:43.400Z,29.27
2023-01-05T10:10:32.377Z,36.93
2023-01-05T10:13:03.450Z,31.53
2023-01-05T10:15:34.982Z,30.27
2023-01-05T10:18:19.690Z,30.33
2023-01-05T10:21:05.455Z,30.87
2023-01-05T10:24:00.074Z,34.90
2023-01-05T10:27:23.718Z,31.20
2023-01-05T10:29:44.794Z,30.67
2023-01-05T10:32:20.709Z,28.63
2023-01-05T10:35:02.822Z,32.83
2023-01-05T10:37:42.081Z,29.60
2023-01-05T10:40:08.932Z,30.90
2023-01-05T10:43:16.735Z,32.03
2023-01-05T10:46:19.743Z,33.77
2023-01-05T10:48:41.445Z,22.17
2023-01-05T10:51:09.512Z,27.80
2023-01-05T10:53:38.700Z,34.37
2023-01-05T10:56:07.073Z,25.77
2023-01-05T10:58:36.413Z,31.13
2023-01-05T11:01:19.715Z,26.70
2023-01-05T11:06:36.148Z,33.67
2023-01-05T11:09:22.387Z,36.67
2023-01-05T11:12:00.501Z,27.70
2023-01-05T11:14:30.312Z,31.43
2023-01-05T11:17:04.526Z,24.97
2023-01-05T11:19:35.412Z,24.13
2023-01-05T11:22:02.925Z,22.17
2023-01-05T11:24:34.775Z,30.67
2023-01-05T11:27:24.585Z,34.97
2023-01-05T11:30:16.220Z,26.00
2023-01-05T11:32:43.718Z,34.17
2023-01-05T11:35:32.057Z,25.47
2023-01-05T11:38:00.574Z,29.67
2023-01-05T11:40:34.913Z,27.57
2023-01-05T11:43:10.367Z,35.27
2023-01-05T11:45:45.271Z,27.40
2023-01-05T11:48:18.500Z,35.10
2023-01-05T11:50:50.749Z,29.73
2023-01-05T11:53:25.061Z,29.07
2023-01-05T11:56:03.871Z,27.80
2023-01-05T11:58:42.836Z,30.37
2023-01-05T12:01:37.727Z,28.47
2023-01-05T12:04:23.793Z,32.17
2023-01-05T12:07:03.076Z,29.90
2023-01-05T12:09:53.753Z,32.83
2023-01-05T12:12:46.195Z,40.47
2023-01-05T12:15:43.907Z,34.30
2023-01-05T12:18:19.904Z,32.67
2023-01-05T12:21:12.750Z,30.37
2023-01-05T12:23:52.160Z,30.83
2023-01-05T12:26:26.219Z,31.53
2023-01-05T12:30:43.412Z,29.83
2023-01-05T12:35:12.455Z,29.47
2023-01-05T12:38:05.602Z,26.50
2023-01-05T12:40:43.941Z,39.60
2023-01-05T12:43:17.552Z,28.27
2023-01-05T12:46:38.837Z,35.23
2023-01-05T12:49:14.867Z,31.90
2023-01-05T12:51:46.919Z,28.77
2023-01-05T12:54:54.176Z,33.27
2023-01-05T12:57:32.773Z,22.07
2023-01-05T13:00:06.208Z,39.47
2023-01-05T13:02:36.750Z,31.73
2023-01-05T13:05:20.140Z,30.67
2023-01-05T13:07:54.328Z,40.10
2023-01-05T13:10:28.033Z,36.23
2023-01-05T13:13:00.660Z,38.37
2023-01-05T13:15:37.533Z,35.87
2023-01-05T13:18:07.640Z,33.37
2023-01-05T13:20:43.281Z,32.23
2023-01-05T13:23:27.727Z,32.73
2023-01-05T13:26:01.889Z,36.07
2023-01-05T13:28:31.264Z,32.90
2023-01-05T13:31:32.587Z,28.87
2023-01-05T13:34:21.695Z,29.03
2023-01-05T13:37:01.355Z,25.73
2023-01-05T13:40:03.076Z,35.90
2023-01-05T13:43:10.589Z,37.93
2023-01-05T13:45:56.006Z,26.23
2023-01-05T13:48:57.540Z,29.40
2023-01-05T13:51:54.631Z,31.73
2023-01-05T13:54:49.215Z,29.90
2023-01-05T13:57:31.509Z,36.47
2023-01-05T14:00:07.310Z,30.27
2023-01-05T14:02:43.141Z,28.40
2023-01-05T14:05:24.868Z,32.97
2023-01-05T14:07:53.948Z,32.43
2023-01-05T14:10:26.474Z,30.13
2023-01-05T14:12:56.652Z,31.53
2023-01-05T14:15:43.514Z,28.33
2023-01-05T14:18:52.518Z,24.83
2023-01-05T14:21:50.496Z,28.20
2023-01-05T14:24:28.643Z,25.57
2023-01-05T14:27:04.542Z,26.77
2023-01-05T14:29:59.715Z,28.07
2023-01-05T14:32:36.695Z,27.80
2023-01-05T14:35:42.528Z,24.47
2023-01-05T14:38:15.147Z,24.53
2023-01-05T14:40:45.228Z,26.53
2023-01-05T14:43:21.797Z,21.47
2023-01-05T14:46:06.146Z,16.20
2023-01-05T14:48:47.968Z,19.80
2023-01-05T14:51:24.089Z,17.23
2023-01-05T14:53:56.226Z,16.63
2023-01-05T14:56:26.513Z,12.67
2023-01-05T14:59:14.121Z,13.57
2023-01-05T15:01:44.079Z,14.23
2023-01-05T15:04:28.033Z,15.73
2023-01-05T15:07:09.921Z,12.63
2023-01-05T15:10:12.846Z,14.93
2023-01-05T15:13:13.136Z,7.37
2023-01-05T15:15:47.307Z,14.17
2023-01-05T15:21:15.304Z,11.83
2023-01-05T15:24:09.229Z,7.50
2023-01-05T15:26:54.826Z,6.47
2023-01-05T15:29:40.005Z,14.03
2023-01-05T15:32:26.885Z,5.63
2023-01-05T15:35:19.474Z,5.57
2023-01-05T15:37:52.317Z,5.97
2023-01-05T15:40:22.417Z,7.37
2023-01-05T15:43:06.078Z,7.93
2023-01-05T15:45:35.840Z,8.47
2023-01-05T15:48:09.501Z,6.40
2023-01-05T15:50:47.751Z,7.03
2023-01-05T15:53:23.883Z,5.57
2023-01-05T15:55:53.619Z,8.63
2023-01-05T15:58:22.593Z,8.33
2023-01-05T16:01:11.659Z,4.13
2023-01-05T16:03:40.099Z,7.97
2023-01-05T16:06:08.944Z,8.03
2023-01-05T16:08:43.159Z,6.60
2023-01-05T16:11:13.281Z,6.17
2023-01-05T16:14:22.236Z,3.80
2023-01-05T16:17:22.484Z,6.83
2023-01-05T16:19:54.041Z,6.40
2023-01-05T16:22:27.040Z,5.43
2023-01-05T16:25:03.359Z,2.63
2023-01-05T16:27:30.567Z,6.97
2023-01-05T16:30:28.552Z,8.40
2023-01-05T16:33:03.355Z,5.47
2023-01-05T16:35:33.829Z,11.07
2023-01-05T16:38:10.140Z,5.73
2023-01-05T16:40:46.627Z,8.33
2023-01-05T16:43:25.455Z,5.93
2023-01-05T16:46:01.127Z,4.60
2023-01-05T16:48:40.832Z,4.83
2023-01-05T16:51:18.055Z,10.10
2023-01-05T16:54:08.721Z,6.40
2023-01-05T16:56:35.765Z,7.37
2023-01-05T16:59:40.414Z,4.73
2023-01-05T17:02:32.380Z,4.77
2023-01-05T17:04:59.252Z,6.90
2023-01-05T17:07:26.293Z,6.67
2023-01-05T17:09:53.458Z,4.13
2023-01-05T17:12:20.291Z,6.20
2023-01-05T17:14:47.379Z,6.03
2023-01-05T17:17:14.606Z,6.03
2023-01-05T17:19:41.461Z,3.60
2023-01-05T17:22:11.558Z,4.17
2023-01-05T17:24:39.883Z,2.50
2023-01-05T17:27:06.779Z,3.13
2023-01-05T17:29:36.599Z,5.63
2023-01-05T17:32:03.750Z,3.53
2023-01-05T17:34:30.826Z,2.80
2023-01-05T17:37:00.125Z,3.53
2023-01-05T17:39:27.051Z,2.40
2023-01-05T17:42:13.985Z,2.00
2023-01-05T17:44:41.557Z,2.67
2023-01-05T17:47:08.260Z,3.73
2023-01-05T17:49:35.157Z,3.40
2023-01-05T17:54:29.102Z,3.70
2023-01-05T17:56:55.931Z,2.30
2023-01-05T17:59:23.233Z,3.97
2023-01-05T18:01:51.441Z,4.93
2023-01-05T18:04:18.254Z,3.07
2023-01-05T18:06:45.082Z,2.97
2023-01-05T18:09:11.964Z,3.63
2023-01-05T18:11:38.851Z,2.87
2023-01-05T18:16:32.505Z,4.33
2023-01-05T18:18:59.416Z,3.43
2023-01-05T18:21:26.711Z,3.40
2023-01-05T18:23:53.533Z,4.80
2023-01-05T18:26:20.734Z,2.87
2023-01-05T18:28:47.894Z,2.93
2023-01-05T18:31:16.235Z,2.30
2023-01-05T18:33:43.812Z,2.40
2023-01-05T18:36:15.705Z,2.10
2023-01-05T18:38:43.232Z,3.40
2023-01-05T18:41:10.856Z,2.27
2023-01-05T18:43:38.061Z,2.67
2023-01-05T18:46:05.377Z,4.07
2023-01-05T18:48:32.851Z,3.57
2023-01-05T18:51:00.145Z,6.17
2023-01-05T18:53:27.198Z,2.50
2023-01-05T18:55:54.714Z,5.53
2023-01-05T18:58:21.907Z,2.00
2023-01-05T19:00:48.850Z,2.67
2023-01-05T19:03:15.957Z,2.93
2023-01-05T19:05:44.575Z,2.47
2023-01-05T19:08:12.905Z,2.73
2023-01-05T19:10:40.104Z,2.40
2023-01-05T19:13:07.332Z,6.53
2023-01-05T19:15:35.660Z,3.80
2023-01-05T19:18:02.601Z,3.27
2023-01-05T19:20:29.615Z,2.90
2023-01-05T19:22:56.486Z,8.50
2023-01-05T19:25:23.305Z,5.60
2023-01-05T19:27:50.136Z,5.83
2023-01-05T19:30:19.963Z,5.43
2023-01-05T19:32:46.821Z,5.60
2023-01-05T19:35:15.031Z,5.70
2023-01-05T19:37:42.673Z,5.10
2023-01-05T19:40:10.998Z,5.20
2023-01-05T19:42:39.085Z,7.37
2023-01-05T19:45:06.727Z,6.77
2023-01-05T19:47:36.556Z,3.07
2023-01-05T19:50:03.476Z,4.60
2023-01-05T19:52:30.818Z,4.73
2023-01-05T19:54:57.713Z,4.27
2023-01-05T19:57:25.292Z,7.63
2023-01-05T19:59:52.076Z,4.97
2023-01-05T20:02:19.054Z,8.87
2023-01-05T20:04:47.146Z,7.17
2023-01-05T20:07:14.395Z,10.33
2023-01-05T20:09:41.550Z,12.03
2023-01-05T20:12:14.867Z,8.13
2023-01-05T20:14:42.825Z,9.23
2023-01-05T20:17:10.965Z,9.60
2023-01-05T20:19:39.320Z,5.67
2023-01-05T20:22:32.115Z,9.73
2023-01-05T20:25:05.121Z,9.30
2023-01-05T20:27:32.425Z,7.10
2023-01-05T20:29:59.384Z,8.03
2023-01-05T20:32:27.319Z,5.47
2023-01-05T20:35:02.532Z,5.47
2023-01-05T20:37:31.486Z,9.53
2023-01-05T20:40:00.159Z,6.27
2023-01-05T20:42:27.999Z,6.83
2023-01-05T20:44:54.774Z,6.27
2023-01-05T20:47:22.675Z,4.43
2023-01-05T20:49:49.848Z,4.17
2023-01-05T20:52:17.858Z,5.17
2023-01-05T20:54:45.099Z,4.37
2023-01-05T20:57:12.465Z,11.20
2023-01-05T20:59:40.884Z,7.27
2023-01-05T21:02:22.548Z,5.10
2023-01-05T21:04:50.678Z,5.57
2023-01-05T21:07:17.673Z,5.80
2023-01-05T21:09:44.485Z,6.13
2023-01-05T21:12:11.592Z,5.53
2023-01-05T21:14:38.807Z,9.37
2023-01-05T21:17:05.608Z,3.97
2023-01-05T21:19:32.394Z,4.50
2023-01-05T21:21:59.495Z,4.63
2023-01-05T21:24:27.211Z,6.03
2023-01-05T21:26:55.080Z,2.23
2023-01-05T21:29:26.150Z,7.23
2023-01-05T21:31:58.963Z,4.13
2023-01-05T21:34:26.628Z,5.97
2023-01-05T21:36:54.248Z,4.17
2023-01-05T21:39:23.407Z,4.97
2023-01-05T21:42:10.390Z,3.00
2023-01-05T21:44:37.865Z,2.43
2023-01-05T21:47:06.571Z,5.57
2023-01-05T21:49:34.748Z,4.23
2023-01-05T21:52:20.301Z,5.90
2023-01-05T21:55:05.844Z,3.27
2023-01-05T21:57:32.733Z,4.33
2023-01-05T21:59:59.538Z,8.23
2023-01-05T22:02:26.449Z,4.17
2023-01-05T22:04:53.296Z,10.50
2023-01-05T22:07:20.203Z,5.47
2023-01-05T22:09:47.516Z,7.53
2023-01-05T22:12:14.442Z,4.10
2023-01-05T22:14:41.490Z,7.23
2023-01-05T22:17:09.409Z,5.03
2023-01-05T22:19:36.811Z,5.13
2023-01-05T22:22:04.109Z,5.00
2023-01-05T22:24:31.139Z,3.43
2023-01-05T22:26:57.979Z,3.23
2023-01-05T22:29:24.849Z,2.20
2023-01-05T22:31:51.832Z,2.73
2023-01-05T22:34:18.859Z,4.23
2023-01-05T22:36:45.870Z,2.50
2023-01-05T22:39:12.803Z,4.83
2023-01-05T22:41:39.627Z,4.03
2023-01-05T22:44:06.842Z,3.97
2023-01-05T22:46:34.036Z,2.50
2023-01-05T22:49:01.133Z,5.17
2023-01-05T22:51:30.855Z,7.27
2023-01-05T22:53:58.427Z,3.77
2023-01-05T22:56:27.175Z,2.80
2023-01-05T22:59:02.074Z,5.57
2023-01-05T23:01:38.874Z,2.87
2023-01-05T23:04:09.940Z,5.80
2023-01-05T23:06:37.217Z,6.07
2023-01-05T23:09:06.198Z,4.50
2023-01-05T23:11:35.919Z,2.07
2023-01-05T23:14:04.521Z,2.83
2023-01-05T23:16:36.588Z,4.47
2023-01-05T23:19:04.800Z,2.60
2023-01-05T23:21:32.053Z,4.63
2023-01-05T23:23:59.383Z,2.93
2023-01-05T23:26:30.848Z,6.60
2023-01-05T23:28:58.002Z,2.90
2023-01-05T23:31:24.923Z,4.77
2023-01-05T23:33:52.069Z,3.60
2023-01-05T23:36:25.395Z,8.70
2023-01-05T23:38:52.448Z,3.80
2023-01-05T23:41:19.820Z,6.83
2023-01-05T23:43:47.210Z,4.90
2023-01-05T23:46:16.809Z,2.73
2023-01-05T23:48:44.294Z,2.77
2023-01-05T23:51:14.155Z,6.33
2023-01-05T23:53:47.148Z,2.10
2023-01-05T23:56:18.825Z,7.20
2023-01-05T23:58:46.021Z,4.07
